Skip to content
Christman Field Latest Observations
Select Units
Date Time
MST
Temp
°F
RH
%
DewPt
°F
Wind
mph
Dir
°
Gust
mph
Dir
°
Press
in Hg
Solar
W/m^2
Prec
in
2022-01-20 22:25 20.3 94.5 19.0 0.0 208 0.0 248 24.850 0.0 0.00
2022-01-20 22:20 20.3 94.6 19.0 0.0 248 0.0 296 24.851 0.0 0.00
2022-01-20 22:15 20.4 94.6 19.1 0.0 295 0.0 274 24.853 0.0 0.00
2022-01-20 22:10 20.3 94.6 19.0 0.0 274 0.0 200 24.855 0.0 0.00
2022-01-20 22:05 20.2 94.7 18.9 0.0 200 0.0 213 24.855 0.0 0.00
2022-01-20 22:00 20.2 94.5 18.9 0.0 213 0.0 160 24.856 0.0 0.00
2022-01-20 21:55 20.1 94.6 18.8 0.0 159 0.0 157 24.858 0.0 0.00
2022-01-20 21:50 19.9 94.8 18.6 0.0 157 0.0 306 24.859 0.0 0.00
2022-01-20 21:45 19.6 94.6 18.3 0.0 307 0.0 0 24.862 0.0 0.00
2022-01-20 21:40 19.5 94.5 18.1 0.0 344 0.0 30 24.864 0.0 0.00
2022-01-20 21:35 19.4 94.6 18.1 0.0 25 0.0 358 24.865 0.0 0.00
2022-01-20 21:30 19.3 94.4 17.9 0.0 3 0.0 350 24.866 0.0 0.00
2022-01-20 21:25 19.2 94.2 17.8 0.0 351 0.0 321 24.866 0.0 0.00
2022-01-20 21:20 19.3 94.2 17.9 0.0 321 0.0 346 24.868 0.0 0.00
2022-01-20 21:15 19.3 94.2 18.0 0.0 346 0.0 327 24.867 0.0 0.00
2022-01-20 21:10 19.5 94.2 18.1 0.0 329 0.0 333 24.869 0.0 0.00
2022-01-20 21:05 19.6 94.4 18.3 0.0 333 0.0 33 24.871 0.0 0.00
2022-01-20 21:00 19.7 94.4 18.4 0.0 40 0.0 21 24.871 0.0 0.00
2022-01-20 20:55 19.9 94.6 18.6 0.0 35 0.0 27 24.876 0.0 0.00
2022-01-20 20:50 19.9 94.3 18.6 0.0 24 0.0 8 24.877 0.0 0.00
2022-01-20 20:45 20.0 94.4 18.7 0.0 8 0.0 349 24.879 0.0 0.00
2022-01-20 20:40 20.0 94.4 18.7 0.0 349 0.0 320 24.879 0.0 0.00
2022-01-20 20:35 19.9 94.6 18.6 0.0 320 0.0 173 24.882 0.0 0.00
2022-01-20 20:30 19.9 94.5 18.5 0.0 173 0.0 341 24.883 0.0 0.00
2022-01-20 20:25 19.9 94.6 18.6 0.0 341 0.0 339 24.888 0.0 0.00
2022-01-20 20:20 19.8 94.6 18.5 0.0 351 0.0 292 24.889 0.0 0.00
2022-01-20 20:15 19.8 94.6 18.5 0.0 292 0.0 265 24.891 0.0 0.00
2022-01-20 20:10 20.0 94.5 18.7 0.0 270 0.0 313 24.894 0.0 0.00
2022-01-20 20:05 20.2 94.6 18.9 0.0 313 0.0 329 24.897 0.0 0.00
2022-01-20 20:00 20.4 94.7 19.1 0.0 329 0.0 335 24.897 0.0 0.00
Date Time
MST
Temp
°C
RH
%
DewPt
°C
Wind
m/s
Dir
°
Gust
m/s
Dir
°
Press
hPa
Solar
W/m^2
Prec
mm
2022-01-20 22:25 -6.5 94.5 -7.2 0.0 208 0.0 248 841.53 0.0 0.00
2022-01-20 22:20 -6.5 94.6 -7.2 0.0 248 0.0 296 841.55 0.0 0.00
2022-01-20 22:15 -6.5 94.6 -7.2 0.0 295 0.0 274 841.61 0.0 0.00
2022-01-20 22:10 -6.5 94.6 -7.2 0.0 274 0.0 200 841.69 0.0 0.00
2022-01-20 22:05 -6.6 94.7 -7.3 0.0 200 0.0 213 841.70 0.0 0.00
2022-01-20 22:00 -6.6 94.5 -7.3 0.0 213 0.0 160 841.72 0.0 0.00
2022-01-20 21:55 -6.6 94.6 -7.3 0.0 159 0.0 157 841.77 0.0 0.00
2022-01-20 21:50 -6.7 94.8 -7.4 0.0 157 0.0 306 841.81 0.0 0.00
2022-01-20 21:45 -6.9 94.6 -7.6 0.0 307 0.0 0 841.93 0.0 0.00
2022-01-20 21:40 -7.0 94.5 -7.7 0.0 344 0.0 30 842.00 0.0 0.00
2022-01-20 21:35 -7.0 94.6 -7.7 0.0 25 0.0 358 842.03 0.0 0.00
2022-01-20 21:30 -7.1 94.4 -7.8 0.0 3 0.0 350 842.05 0.0 0.00
2022-01-20 21:25 -7.1 94.2 -7.9 0.0 351 0.0 321 842.06 0.0 0.00
2022-01-20 21:20 -7.1 94.2 -7.8 0.0 321 0.0 346 842.12 0.0 0.00
2022-01-20 21:15 -7.0 94.2 -7.8 0.0 346 0.0 327 842.08 0.0 0.00
2022-01-20 21:10 -6.9 94.2 -7.7 0.0 329 0.0 333 842.17 0.0 0.00
2022-01-20 21:05 -6.9 94.4 -7.6 0.0 333 0.0 33 842.21 0.0 0.00
2022-01-20 21:00 -6.8 94.4 -7.6 0.0 40 0.0 21 842.24 0.0 0.00
2022-01-20 20:55 -6.7 94.6 -7.5 0.0 35 0.0 27 842.39 0.0 0.00
2022-01-20 20:50 -6.7 94.3 -7.5 0.0 24 0.0 8 842.42 0.0 0.00
2022-01-20 20:45 -6.7 94.4 -7.4 0.0 8 0.0 349 842.49 0.0 0.00
2022-01-20 20:40 -6.7 94.4 -7.4 0.0 349 0.0 320 842.50 0.0 0.00
2022-01-20 20:35 -6.7 94.6 -7.4 0.0 320 0.0 173 842.60 0.0 0.00
2022-01-20 20:30 -6.7 94.5 -7.5 0.0 173 0.0 341 842.64 0.0 0.00
2022-01-20 20:25 -6.7 94.6 -7.5 0.0 341 0.0 339 842.81 0.0 0.00
2022-01-20 20:20 -6.8 94.6 -7.5 0.0 351 0.0 292 842.84 0.0 0.00
2022-01-20 20:15 -6.8 94.6 -7.5 0.0 292 0.0 265 842.92 0.0 0.00
2022-01-20 20:10 -6.6 94.5 -7.4 0.0 270 0.0 313 843.01 0.0 0.00
2022-01-20 20:05 -6.5 94.6 -7.3 0.0 313 0.0 329 843.12 0.0 0.00
2022-01-20 20:00 -6.5 94.7 -7.2 0.0 329 0.0 335 843.10 0.0 0.00
CIRA

Cooperative Institute for Research in the Atmosphere

22-104 Research Associate II, Data Visualization Researcher

Open in new tab

Quick Details


Job Closes: 02/07/2022

Classification Title Research Associate II

Position Type: Research

Full/Part time: Full Time

View job on CSU Jobs: https://jobs.colostate.edu/postings/97327